Falls International Airport International Falls US
ICAO: KINL
IATA: INL
Category: Medium
Scheduled Services: Yes

Elevation: 1185 ft
TransAlt. 18000 ft.

Airport Communications:
ASOS:120
MINNEAPOLIS CNTR:120.9
PRINCETON RDO:123.6
CTAF/UNICOM:122.8

KINL Zoom In..

If you have problems with the map follow the link
https://www.worldairports.se/pages/airport.php?
ICAO=KINL

Runways:

(A) RW 04 length 2999 ft width 75 ft
---- / hdg 39

(B) RW 13 length 7400 ft width 150 ft
ILS 109.10 / hdg 133

(C) RW 22 length 2999 ft width 75 ft
---- / hdg 219

(D) RW 31 length 7400 ft width 150 ft
ILS 111.95 / hdg 313

Location; KINL
Day. 06 / Time. 11.55 Zulu
* Altimeter: 30.27
* Temperature: -13° c. -8.6°f.
* Wind from: 300° Speed 07 kn.
Dewpoint: -16° c.
Visibility: 10 Statute Miles.
Clouds: Overcast 1200 ft.

KINL 061155Z AUTO 30007KT 10SM OVC012 M13/M16 A3027 RMK AO2 SLP278 60000 70003 T11281156 11094 21133 51009


Wind From 300°
Speed 07 kn.

 
 
jpsmedia worldairports.se 2019   terms of use